Time;durP1;ratioP1;P1;durP2;ratioP2;P2;SDS_P1;SDS_P2;PMS_P1;PMS_P2;Temp;Humidity;BMP_temperature;BMP_pressure;BME280_temperature;BME280_humidity;BME280_pressure;Samples;Min_cycle;Max_cycle;Signal;HPM_P1;HPM_P2
2022/06/14 00:02:24;85873.00;0.29;149.18;17171.00;0.06;30.37;;;;;18.80;1.00;;;;;;2284876;60;2036;-87
2022/06/14 00:04:53;109811.00;0.37;190.50;0.00;0.00;0.62;;;;;19.10;1.00;;;;;;2285123;60;1101;-86
2022/06/14 00:07:20;0.00;0.00;0.62;0.00;0.00;0.62;;;;;19.20;1.00;;;;;;2285100;60;1406;-87
2022/06/14 00:09:47;36051.00;0.12;63.06;0.00;0.00;0.62;;;;;19.80;1.00;;;;;;2285152;60;1094;-87
2022/06/14 00:12:14;0.00;0.00;0.62;0.00;0.00;0.62;;;;;20.20;1.00;;;;;;2285130;60;1008;-85
2022/06/14 00:14:41;32531.00;0.11;56.96;0.00;0.00;0.62;;;;;20.00;1.00;;;;;;2285130;60;1003;-86
2022/06/14 00:17:08;256175.00;0.85;442.57;78633.00;0.26;136.68;;;;;19.90;1.00;;;;;;2285109;60;1414;-86
2022/06/14 00:19:35;160786.00;0.54;278.39;9769.00;0.03;17.55;;;;;20.20;1.00;;;;;;2285100;60;1101;-87
2022/06/14 00:22:04;110957.00;0.37;192.48;11439.00;0.04;20.44;;;;;20.10;1.00;;;;;;2285086;60;1911;-87
2022/06/14 00:24:31;280732.00;0.94;484.80;19494.00;0.06;34.39;;;;;20.00;1.00;;;;;;2285048;60;1032;-86
2022/06/14 00:26:58;36495.00;0.12;63.82;0.00;0.00;0.62;;;;;20.20;1.00;;;;;;2284655;60;1397;-86
2022/06/14 00:29:25;62540.00;0.21;108.87;0.00;0.00;0.62;;;;;20.60;1.00;;;;;;2284959;60;1027;-87
2022/06/14 00:31:52;103776.00;0.35;180.09;0.00;0.00;0.62;;;;;20.50;1.00;;;;;;2285057;60;1067;-87
2022/06/14 00:34:19;27446.00;0.09;48.16;0.00;0.00;0.62;;;;;20.60;1.00;;;;;;2285050;60;1035;-86
2022/06/14 00:36:53;36275.00;0.12;63.44;0.00;0.00;0.62;;;;;20.80;1.00;;;;;;2284951;60;1311;-87
2022/06/14 00:39:21;69559.00;0.23;121.00;0.00;0.00;0.62;;;;;20.80;1.00;;;;;;2285011;60;1164;-86
2022/06/14 00:41:51;113150.00;0.38;196.27;0.00;0.00;0.62;;;;;20.70;1.00;;;;;;2284952;60;2004;-87
2022/06/14 00:44:21;56317.00;0.19;98.11;0.00;0.00;0.62;;;;;20.80;1.00;;;;;;2284976;60;1076;-86
2022/06/14 00:46:56;67325.00;0.22;117.14;0.00;0.00;0.62;;;;;20.40;1.00;;;;;;2284913;60;1615;-86
2022/06/14 00:49:28;59816.00;0.20;104.16;0.00;0.00;0.62;;;;;20.10;1.00;;;;;;2284957;60;1130;-87
2022/06/14 00:52:01;129771.00;0.43;224.93;0.00;0.00;0.62;;;;;20.00;1.00;;;;;;2284750;60;1077;-87
2022/06/14 00:54:35;331536.00;1.11;572.13;0.00;0.00;0.62;;;;;20.00;1.00;;;;;;2284948;60;1130;-87
2022/06/14 00:57:09;0.00;0.00;0.62;0.00;0.00;0.62;;;;;19.30;1.00;;;;;;2284894;60;1492;-88
2022/06/14 00:59:42;244217.00;0.81;422.00;0.00;0.00;0.62;;;;;19.20;1.00;;;;;;2284914;60;1730;-84
2022/06/14 01:02:14;67086.00;0.22;116.72;0.00;0.00;0.62;;;;;19.50;1.00;;;;;;2284888;60;1980;-85
2022/06/14 01:04:43;127562.00;0.43;221.12;0.00;0.00;0.62;;;;;19.70;1.00;;;;;;2284945;60;1086;-86
2022/06/14 01:07:15;169410.00;0.56;293.25;0.00;0.00;0.62;;;;;19.80;1.00;;;;;;2284893;60;1371;-86
2022/06/14 01:09:49;34592.00;0.12;60.53;0.00;0.00;0.62;;;;;19.90;1.00;;;;;;2284928;60;1028;-86
2022/06/14 01:12:19;55104.00;0.18;96.01;0.00;0.00;0.62;;;;;20.10;1.00;;;;;;2284894;60;1119;-85
2022/06/14 01:14:58;170645.00;0.57;295.38;0.00;0.00;0.62;;;;;20.10;1.00;;;;;;2284900;60;1107;-85
2022/06/14 01:17:26;41734.00;0.14;72.89;0.00;0.00;0.62;;;;;20.20;1.00;;;;;;2284834;60;1420;-86
2022/06/14 01:19:53;39373.00;0.13;68.80;0.00;0.00;0.62;;;;;20.00;1.00;;;;;;2284879;60;1087;-86
2022/06/14 01:22:31;71143.00;0.24;123.74;0.00;0.00;0.62;;;;;20.00;1.00;;;;;;2284836;60;1994;-86
2022/06/14 01:25:00;118548.00;0.40;205.58;0.00;0.00;0.62;;;;;19.90;1.00;;;;;;2284860;60;1078;-87
2022/06/14 01:27:28;35078.00;0.12;61.37;0.00;0.00;0.62;;;;;19.90;1.00;;;;;;2284812;60;1386;-89
2022/06/14 01:30:05;0.00;0.00;0.62;0.00;0.00;0.62;;;;;19.90;1.00;;;;;;2284750;60;1027;-86
2022/06/14 01:32:35;78469.00;0.26;136.39;0.00;0.00;0.62;;;;;19.80;1.00;;;;;;2284818;60;1192;-85
2022/06/14 01:35:07;191527.00;0.64;331.34;15966.00;0.05;28.28;;;;;19.70;1.00;;;;;;2284844;60;1148;-86
2022/06/14 01:37:37;112791.00;0.38;195.65;0.00;0.00;0.62;;;;;19.50;1.00;;;;;;2284821;60;1407;-85
2022/06/14 01:40:07;0.00;0.00;0.62;0.00;0.00;0.62;;;;;19.70;1.00;;;;;;2284819;60;1059;-86
2022/06/14 01:42:45;100894.00;0.34;175.11;0.00;0.00;0.62;;;;;19.40;1.00;;;;;;2284753;60;2003;-86
2022/06/14 01:45:25;70153.00;0.23;122.02;0.00;0.00;0.62;;;;;19.50;1.00;;;;;;2284662;60;1040;-85
2022/06/14 01:48:07;109743.00;0.37;190.39;0.00;0.00;0.62;;;;;19.70;1.00;;;;;;2284793;60;1492;-86
2022/06/14 01:53:46;81582.00;0.27;141.77;0.00;0.00;0.62;;;;;19.00;1.00;;;;;;2284816;60;628;-86
2022/06/14 01:56:20;111244.00;0.37;192.98;0.00;0.00;0.62;;;;;19.30;1.00;;;;;;2284696;60;1354;-86
2022/06/14 01:58:57;137296.00;0.46;237.91;0.00;0.00;0.62;;;;;19.40;1.00;;;;;;2284744;60;1418;-86
2022/06/14 02:01:32;73699.00;0.25;128.15;0.00;0.00;0.62;;;;;19.20;1.00;;;;;;2284756;60;1907;-86
2022/06/14 02:07:06;20159.00;0.07;35.55;0.00;0.00;0.62;;;;;18.80;1.00;;;;;;2284765;60;1411;-85
2022/06/14 02:09:46;57263.00;0.19;99.75;0.00;0.00;0.62;;;;;19.10;1.00;;;;;;2284716;60;1027;-87
2022/06/14 02:12:18;31493.00;0.10;55.17;0.00;0.00;0.62;;;;;19.20;1.00;;;;;;2284758;60;1108;-85
2022/06/14 02:14:52;113484.00;0.38;196.84;0.00;0.00;0.62;;;;;19.60;1.00;;;;;;2284736;60;1013;-86
2022/06/14 02:17:26;17730.00;0.06;31.34;0.00;0.00;0.62;;;;;19.50;1.00;;;;;;2284681;60;1478;-86
2022/06/14 02:20:01;76980.00;0.26;133.82;0.00;0.00;0.62;;;;;19.60;1.00;;;;;;2284745;60;1152;-87
2022/06/14 02:22:34;6400.00;0.02;11.71;0.00;0.00;0.62;;;;;19.40;1.00;;;;;;2284644;60;2006;-86
2022/06/14 02:25:10;488708.00;1.63;842.39;25015.00;0.08;43.95;;;;;19.40;1.00;;;;;;2284725;60;1089;-85
2022/06/14 02:27:44;271934.00;0.91;469.67;33425.00;0.11;58.51;;;;;19.30;1.00;;;;;;2284711;60;1457;-88
2022/06/14 02:30:15;76948.00;0.26;133.77;0.00;0.00;0.62;;;;;19.40;1.00;;;;;;2284651;60;1089;-86
2022/06/14 02:32:47;110502.00;0.37;191.70;2354.00;0.01;4.70;;;;;19.70;1.00;;;;;;2284617;60;1054;-86
2022/06/14 02:35:21;36699.00;0.12;64.18;0.00;0.00;0.62;;;;;19.90;1.00;;;;;;2284627;60;1545;-86
2022/06/14 02:37:57;108183.00;0.36;187.69;13532.00;0.05;24.07;;;;;20.00;1.00;;;;;;2284643;60;1470;-86
2022/06/14 02:40:33;0.00;0.00;0.62;0.00;0.00;0.62;;;;;20.10;1.00;;;;;;2284637;60;1141;-87
2022/06/14 02:43:08;0.00;0.00;0.62;0.00;0.00;0.62;;;;;20.30;1.00;;;;;;2284611;60;1915;-86
2022/06/14 02:45:41;0.00;0.00;0.62;0.00;0.00;0.62;;;;;20.00;1.00;;;;;;2284618;60;1180;-86
2022/06/14 02:48:16;242335.00;0.81;418.77;0.00;0.00;0.62;;;;;19.70;1.00;;;;;;2284607;60;1168;-85
2022/06/14 02:50:48;293714.00;0.98;507.11;0.00;0.00;0.62;;;;;19.40;1.00;;;;;;2284586;60;1086;-86
2022/06/14 02:53:20;0.00;0.00;0.62;0.00;0.00;0.62;;;;;19.60;1.00;;;;;;2284599;60;1070;-87
2022/06/14 02:55:53;80660.00;0.27;140.18;0.00;0.00;0.62;;;;;19.50;1.00;;;;;;2284577;60;1388;-85
2022/06/14 02:58:27;56315.00;0.19;98.11;0.00;0.00;0.62;;;;;19.70;1.00;;;;;;2284539;60;1567;-85
2022/06/14 03:00:59;122443.00;0.41;212.30;0.00;0.00;0.62;;;;;19.70;1.00;;;;;;2284647;60;1009;-86
2022/06/14 03:03:32;30430.00;0.10;53.33;0.00;0.00;0.62;;;;;19.60;1.00;;;;;;2284621;60;1923;-86
2022/06/14 03:06:07;70509.00;0.24;122.64;0.00;0.00;0.62;;;;;18.80;1.00;;;;;;2284626;60;1380;-86
2022/06/14 03:08:44;51655.00;0.17;90.05;0.00;0.00;0.62;;;;;17.90;1.00;;;;;;2284645;60;1062;-85
2022/06/14 03:11:23;15837.00;0.05;28.06;0.00;0.00;0.62;;;;;17.30;1.00;;;;;;2284607;60;1121;-86
2022/06/14 03:13:59;0.00;0.00;0.62;0.00;0.00;0.62;;;;;17.10;1.00;;;;;;2284569;60;1105;-85
2022/06/14 03:16:34;114131.00;0.38;197.96;0.00;0.00;0.62;;;;;17.30;1.00;;;;;;2284925;60;1489;-86
2022/06/14 03:19:13;45116.00;0.15;78.74;0.00;0.00;0.62;;;;;17.90;1.00;;;;;;2285321;60;1323;-87
2022/06/14 03:21:46;247245.00;0.82;427.21;0.00;0.00;0.62;;;;;18.40;1.00;;;;;;2285262;60;1914;-86
2022/06/14 03:24:26;29456.00;0.10;51.64;0.00;0.00;0.62;;;;;18.50;1.00;;;;;;2285239;60;1017;-85
2022/06/14 03:27:02;48259.00;0.16;84.18;0.00;0.00;0.62;;;;;18.90;1.00;;;;;;2285240;60;1522;-86
2022/06/14 03:29:38;171700.00;0.57;297.19;6764.00;0.02;12.34;;;;;19.10;1.00;;;;;;2285188;60;1102;-86
2022/06/14 03:32:12;18587.00;0.06;32.82;0.00;0.00;0.62;;;;;19.30;1.00;;;;;;2285216;60;1113;-85
2022/06/14 03:34:45;0.00;0.00;0.62;0.00;0.00;0.62;;;;;19.40;1.00;;;;;;2285191;60;1133;-86
2022/06/14 03:37:14;0.00;0.00;0.62;0.00;0.00;0.62;;;;;19.40;1.00;;;;;;2285103;60;2362;-87
2022/06/14 03:39:45;332250.00;1.11;573.35;69688.00;0.23;121.22;;;;;19.80;1.00;;;;;;2285130;60;1008;-84
2022/06/14 03:42:14;25523.00;0.09;44.83;0.00;0.00;0.62;;;;;19.50;1.00;;;;;;2285115;60;2020;-84
2022/06/14 03:44:42;0.00;0.00;0.62;0.00;0.00;0.62;;;;;19.50;1.00;;;;;;2285212;60;1223;-86
2022/06/14 03:47:19;19722.00;0.07;34.79;0.00;0.00;0.62;;;;;19.70;1.00;;;;;;2285173;60;1295;-86
2022/06/14 03:49:53;36888.00;0.12;64.50;0.00;0.00;0.62;;;;;19.70;1.00;;;;;;2285176;60;1130;-87
2022/06/14 03:52:43;53272.00;0.18;92.84;0.00;0.00;0.62;;;;;19.40;1.00;;;;;;2285237;60;1078;-86
2022/06/14 03:55:30;99409.00;0.33;172.55;0.00;0.00;0.62;;;;;19.30;1.00;;;;;;2285178;60;1034;-87
2022/06/14 03:58:15;106329.00;0.35;184.50;620.00;0.00;1.69;;;;;19.30;1.00;;;;;;2285120;60;1498;-87
2022/06/14 04:00:50;38261.00;0.13;66.88;0.00;0.00;0.62;;;;;19.50;1.00;;;;;;2285175;60;1171;-87
2022/06/14 04:03:40;40914.00;0.14;71.47;0.00;0.00;0.62;;;;;19.40;1.00;;;;;;2285159;60;1919;-88
2022/06/14 04:06:19;111746.00;0.37;193.84;12711.00;0.04;22.65;;;;;18.90;1.00;;;;;;2285149;60;1467;-85
2022/06/14 04:09:01;243489.00;0.81;420.75;26184.00;0.09;45.98;;;;;18.80;1.00;;;;;;2285065;60;2001;-86
2022/06/14 04:11:44;0.00;0.00;0.62;0.00;0.00;0.62;;;;;18.90;1.00;;;;;;2285155;60;1025;-85
2022/06/14 04:14:43;341274.00;1.14;588.86;76115.00;0.25;132.33;;;;;18.80;1.00;;;;;;2285201;60;1058;-86
2022/06/14 04:17:19;514289.00;1.71;886.43;104819.00;0.35;181.89;;;;;18.90;1.00;;;;;;2285171;60;1338;-87
2022/06/14 04:20:00;838507.00;2.80;1448.36;226390.00;0.75;391.34;;;;;18.90;1.00;;;;;;2285122;60;1113;-86
2022/06/14 04:22:40;310898.00;1.04;536.65;75010.00;0.25;130.42;;;;;18.40;1.00;;;;;;2285098;60;1907;-86
2022/06/14 04:25:12;1814086.00;6.05;3249.31;126701.00;0.42;219.64;;;;;18.60;1.00;;;;;;2288576;60;1361;-86
2022/06/14 04:27:46;926878.00;3.09;1603.38;112754.00;0.38;195.58;;;;;18.10;1.00;;;;;;2289150;60;1384;-85
2022/06/14 04:30:19;750662.00;2.50;1295.21;100251.00;0.33;174.01;;;;;17.40;1.00;;;;;;2289190;60;1139;-85
2022/06/14 04:32:54;749654.00;2.50;1293.46;96616.00;0.32;167.73;;;;;17.20;1.00;;;;;;2289205;60;1065;-85
2022/06/14 04:35:28;125240784.00;417.47;79587296.00;72801.00;0.24;126.60;;;;;16.70;1.00;;;;;;2289189;60;1045;-86
2022/06/14 04:38:02;859648.00;2.87;1485.36;99869.00;0.33;173.35;;;;;16.90;1.00;;;;;;2289159;60;1369;-87
2022/06/14 04:40:35;943055.00;3.14;1631.87;125133.00;0.42;216.94;;;;;17.00;1.00;;;;;;2289059;60;1031;-85
2022/06/14 04:43:08;784083.00;2.61;1353.38;50372.00;0.17;87.83;;;;;16.90;1.00;;;;;;2289164;60;1907;-85
2022/06/14 04:45:41;878497.00;2.93;1518.38;56594.00;0.19;98.59;;;;;16.80;1.00;;;;;;2289136;60;1280;-87
2022/06/14 04:48:13;124670064.00;415.57;78503192.00;140541.00;0.47;243.50;;;;;16.30;1.00;;;;;;2289152;60;1065;-86
2022/06/14 04:50:47;1095627.00;3.65;1902.61;137635.00;0.46;238.49;;;;;16.10;1.00;;;;;;2289097;60;1027;-85
2022/06/14 04:53:18;603448.00;2.01;1040.17;116792.00;0.39;202.55;;;;;16.30;1.00;;;;;;2289088;60;1038;-86
2022/06/14 04:55:51;659350.00;2.20;1136.82;132315.00;0.44;229.32;;;;;17.10;1.00;;;;;;2289031;60;1473;-85
2022/06/14 04:58:24;687043.00;2.29;1184.78;170819.00;0.57;295.68;;;;;17.90;1.00;;;;;;2288987;60;1259;-86
2022/06/14 05:00:57;1220842.00;4.07;2127.95;193352.00;0.64;334.48;;;;;18.70;1.00;;;;;;2289044;60;1159;-85
2022/06/14 05:03:31;873068.00;2.91;1508.87;131294.00;0.44;227.56;;;;;19.00;1.00;;;;;;2289003;60;1911;-85
2022/06/14 05:06:03;1028196.00;3.43;1782.47;104230.00;0.35;180.87;;;;;19.40;1.00;;;;;;2288971;60;1319;-86
2022/06/14 05:08:35;809411.00;2.70;1397.54;140269.00;0.47;243.03;;;;;19.60;1.00;;;;;;2288980;60;1515;-86
2022/06/14 05:11:08;945522.00;3.15;1636.22;93399.00;0.31;162.18;;;;;19.20;1.00;;;;;;2289104;60;1061;-87
2022/06/14 05:13:47;663807.00;2.21;1144.53;146172.00;0.49;253.21;;;;;18.70;1.00;;;;;;2289111;60;1146;-87
2022/06/14 05:16:22;932581.00;3.11;1613.42;41019.00;0.14;71.65;;;;;17.70;1.00;;;;;;2289130;60;1364;-85
2022/06/14 05:18:53;686824.00;2.29;1184.40;52738.00;0.18;91.92;;;;;17.80;1.00;;;;;;2289013;60;1042;-86
2022/06/14 05:21:30;965734.00;3.22;1671.88;71507.00;0.24;124.36;;;;;18.40;1.00;;;;;;2288916;60;969;-85
2022/06/14 05:23:59;1656229.00;5.52;2940.69;130803.00;0.44;226.71;;;;;18.80;1.00;;;;;;2288920;60;2092;-86
2022/06/14 05:26:44;1399192.00;4.66;2454.83;161740.00;0.54;280.04;;;;;19.40;1.00;;;;;;2288880;60;1316;-85
2022/06/14 05:29:18;715297.00;2.38;1233.78;128762.00;0.43;223.19;;;;;19.50;1.00;;;;;;2288421;60;1101;-86
2022/06/14 05:31:58;442621.00;1.48;763.09;94304.00;0.31;163.74;;;;;19.80;1.00;;;;;;2288527;60;1043;-86
2022/06/14 05:34:40;244970.00;0.82;423.30;0.00;0.00;0.62;;;;;19.80;1.00;;;;;;2288455;60;1602;-85
2022/06/14 05:37:20;259946.00;0.87;449.06;0.00;0.00;0.62;;;;;19.80;1.00;;;;;;2288445;60;1464;-85
2022/06/14 05:39:55;391829.00;1.31;675.76;0.00;0.00;0.62;;;;;20.20;1.00;;;;;;2288334;60;955;-86
2022/06/14 05:42:30;204457.00;0.68;353.60;0.00;0.00;0.62;;;;;21.60;1.00;;;;;;2288860;60;1913;-86
2022/06/14 05:45:02;423501.00;1.41;730.21;8087.00;0.03;14.63;;;;;23.50;1.00;;;;;;2288803;60;1044;-88
2022/06/14 05:47:37;99320.00;0.33;172.40;3966.00;0.01;7.49;;;;;25.50;1.00;;;;;;2288835;60;1461;-85
2022/06/14 05:50:10;83488.00;0.28;145.06;0.00;0.00;0.62;;;;;26.80;1.00;;;;;;2288895;60;1061;-87
2022/06/14 05:52:44;202382.00;0.67;350.02;0.00;0.00;0.62;;;;;28.20;1.00;;;;;;2288778;60;1570;-86
2022/06/14 05:55:19;736538.00;2.46;1270.66;80906.00;0.27;140.60;;;;;28.80;1.00;;;;;;2288523;60;1089;-86
2022/06/14 05:57:52;0.00;0.00;0.62;0.00;0.00;0.62;;;;;28.10;1.00;;;;;;2288461;60;1451;-87
2022/06/14 06:00:26;183093.00;0.61;316.82;0.00;0.00;0.62;;;;;28.10;1.00;;;;;;2288493;60;1157;-87
2022/06/14 06:03:04;358285.00;1.19;618.10;0.00;0.00;0.62;;;;;28.50;1.00;;;;;;2288236;60;2027;-87
2022/06/14 06:05:37;35929.00;0.12;62.84;0.00;0.00;0.62;;;;;29.60;1.00;;;;;;2288509;60;1060;-86
2022/06/14 06:08:10;457276.00;1.52;788.30;9768.00;0.03;17.55;;;;;29.90;1.00;;;;;;2288502;60;1386;-86
2022/06/14 06:10:42;1397710.00;4.66;2452.08;55237.00;0.18;96.24;;;;;29.10;1.00;;;;;;2284785;60;1552;-87
2022/06/14 06:13:15;64694.00;0.22;112.59;0.00;0.00;0.62;;;;;28.90;1.00;;;;;;2284747;60;1651;-87
2022/06/14 06:15:47;261856.00;0.87;452.34;56720.00;0.19;98.81;;;;;28.90;1.00;;;;;;2284771;60;1383;-87
2022/06/14 06:18:23;251678.00;0.84;434.84;0.00;0.00;0.62;;;;;30.00;1.00;;;;;;2284781;60;1046;-86
2022/06/14 06:20:58;511559.00;1.71;881.73;37714.00;0.13;65.93;;;;;31.20;1.00;;;;;;2284686;60;1680;-86
2022/06/14 06:23:30;799269.00;2.66;1379.85;82344.00;0.27;143.09;;;;;31.50;1.00;;;;;;2284606;60;1911;-87
2022/06/14 06:25:59;1152120.00;3.84;2003.89;69167.00;0.23;120.32;;;;;32.40;1.00;;;;;;2284576;60;1386;-87
2022/06/14 06:28:28;1088666.00;3.63;1890.17;112680.00;0.38;195.45;;;;;33.20;1.00;;;;;;2284321;60;1110;-87
2022/06/14 06:31:02;506401.00;1.69;872.84;179904.00;0.60;311.32;;;;;32.70;1.00;;;;;;2287512;60;991;-88
2022/06/14 06:33:34;267338.00;0.89;461.77;0.00;0.00;0.62;;;;;32.50;1.00;;;;;;2288401;60;1017;-88
2022/06/14 06:36:19;52172.00;0.17;90.94;0.00;0.00;0.62;;;;;32.60;1.00;;;;;;2288553;60;1312;-88
2022/06/14 06:39:01;705652.00;2.35;1217.04;52354.00;0.17;91.26;;;;;33.10;1.00;;;;;;2288276;60;1013;-88
2022/06/14 06:41:54;384189.00;1.28;662.63;0.00;0.00;0.62;;;;;34.00;1.00;;;;;;2288392;60;1889;-87
2022/06/14 06:44:31;783533.00;2.61;1352.42;46028.00;0.15;80.32;;;;;33.70;1.00;;;;;;2288549;60;1985;-87
2022/06/14 06:47:06;210271.00;0.70;363.60;53003.00;0.18;92.38;;;;;33.30;1.00;;;;;;2288600;60;1352;-88
2022/06/14 06:49:44;101059.00;0.34;175.40;0.00;0.00;0.62;;;;;32.80;1.00;;;;;;2288521;60;1163;-86
2022/06/14 06:52:15;120373.00;0.40;208.73;0.00;0.00;0.62;;;;;34.00;1.00;;;;;;2288631;60;1537;-88
2022/06/14 06:54:49;673256.00;2.24;1160.89;0.00;0.00;0.62;;;;;33.20;1.00;;;;;;2288571;60;1058;-86
2022/06/14 06:57:22;290073.00;0.97;500.85;64415.00;0.21;112.11;;;;;33.60;1.00;;;;;;2288481;60;1506;-89
2022/06/14 06:59:52;95480.00;0.32;165.77;0.00;0.00;0.62;;;;;33.90;1.00;;;;;;2288448;60;1684;-87
2022/06/14 07:02:29;140179.00;0.47;242.88;0.00;0.00;0.62;;;;;34.00;1.00;;;;;;2288567;60;1121;-87
2022/06/14 07:05:07;839194.00;2.80;1449.57;14770.00;0.05;26.21;;;;;34.30;1.00;;;;;;2288455;60;2223;-86
2022/06/14 07:07:43;388055.00;1.29;669.27;63633.00;0.21;110.76;;;;;34.30;1.00;;;;;;2288492;60;1371;-86
2022/06/14 07:10:20;249656.00;0.83;431.36;34011.00;0.11;59.53;;;;;35.10;1.00;;;;;;2288421;60;1117;-86
2022/06/14 07:12:54;372239.00;1.24;642.09;0.00;0.00;0.62;;;;;34.90;1.00;;;;;;2288080;60;2031;-87
2022/06/14 07:15:27;1544854.00;5.15;2727.81;132939.00;0.44;230.40;;;;;35.70;1.00;;;;;;2288362;60;1636;-87
2022/06/14 07:18:02;441525.00;1.47;761.21;17427.00;0.06;30.81;;;;;34.90;1.00;;;;;;2288541;60;1494;-88
2022/06/14 07:20:38;644538.00;2.15;1111.19;38131.00;0.13;66.65;;;;;35.70;1.00;;;;;;2288425;60;1000;-87
2022/06/14 07:23:17;573762.00;1.91;988.94;168339.00;0.56;291.41;;;;;35.90;1.00;;;;;;2288214;60;1993;-87
2022/06/14 07:26:03;129189824.00;430.63;87363600.00;0.00;0.00;0.62;;;;;35.20;1.00;;;;;;2288195;60;1373;-86
2022/06/14 07:28:37;15362.00;0.05;27.24;0.00;0.00;0.62;;;;;34.80;1.00;;;;;;2288565;60;1085;-85
2022/06/14 07:31:09;235936.00;0.79;407.76;0.00;0.00;0.62;;;;;35.00;1.00;;;;;;2288434;60;1610;-86
2022/06/14 07:33:38;579607.00;1.93;999.02;10280.00;0.03;18.43;;;;;34.80;1.00;;;;;;2288347;60;2047;-86
2022/06/14 07:36:14;422434.00;1.41;728.38;95119.00;0.32;165.15;;;;;34.60;1.00;;;;;;2288305;60;1297;-86
2022/06/14 07:38:51;150843.00;0.50;261.26;21159.00;0.07;37.28;;;;;35.00;1.00;;;;;;2288371;60;1064;-87
2022/06/14 07:41:29;94934.00;0.32;164.83;4186.00;0.01;7.87;;;;;34.30;1.00;;;;;;2288529;60;1131;-87
2022/06/14 07:44:06;488612.00;1.63;842.22;28798.00;0.10;50.50;;;;;33.50;1.00;;;;;;2288391;60;1984;-87
2022/06/14 07:46:44;660827.00;2.20;1139.37;147228.00;0.49;255.03;;;;;33.60;1.00;;;;;;2288430;60;1450;-86
2022/06/14 07:49:17;46320.00;0.15;80.82;0.00;0.00;0.62;;;;;33.80;1.00;;;;;;2288416;60;1090;-87
2022/06/14 07:51:53;56230.00;0.19;97.96;0.00;0.00;0.62;;;;;34.40;1.00;;;;;;2288267;60;1139;-88
2022/06/14 07:54:25;679337.00;2.26;1171.42;123564.00;0.41;214.23;;;;;34.90;1.00;;;;;;2288069;60;2225;-86
2022/06/14 07:56:57;88405.00;0.29;153.55;0.00;0.00;0.62;;;;;34.30;1.00;;;;;;2287973;60;1377;-87
2022/06/14 07:59:30;0.00;0.00;0.62;0.00;0.00;0.62;;;;;33.90;1.00;;;;;;2287960;60;1565;-87
2022/06/14 08:02:03;221346.00;0.74;382.66;44224.00;0.15;77.20;;;;;34.00;1.00;;;;;;2288619;60;1093;-88
2022/06/14 08:04:37;628994.00;2.10;1084.31;0.00;0.00;0.62;;;;;32.80;1.00;;;;;;2289157;60;1921;-87
2022/06/14 08:07:10;277196.00;0.92;478.72;9838.00;0.03;17.67;;;;;33.00;1.00;;;;;;2289014;60;1406;-86
2022/06/14 08:09:42;57899.00;0.19;100.84;0.00;0.00;0.62;;;;;33.80;1.00;;;;;;2289236;60;1175;-86
2022/06/14 08:12:16;269556.00;0.90;465.58;64142.00;0.21;111.64;;;;;34.50;1.00;;;;;;2289018;60;1588;-87
2022/06/14 08:14:51;237312.00;0.79;410.13;0.00;0.00;0.62;;;;;34.60;1.00;;;;;;2289055;60;1699;-86
2022/06/14 08:17:26;797345.00;2.66;1376.49;61583.00;0.21;107.21;;;;;34.80;1.00;;;;;;2289093;60;1407;-86
2022/06/14 08:19:59;355316.00;1.18;613.00;62889.00;0.21;109.47;;;;;34.40;1.00;;;;;;2288980;60;1071;-87
2022/06/14 08:22:34;326386.00;1.09;563.27;117917.00;0.39;204.49;;;;;34.50;1.00;;;;;;2289048;60;1032;-86
2022/06/14 08:25:06;120741.00;0.40;209.36;0.00;0.00;0.62;;;;;34.30;1.00;;;;;;2289068;60;1992;-87
2022/06/14 08:27:38;28302.00;0.09;49.64;0.00;0.00;0.62;;;;;34.40;1.00;;;;;;2289048;60;1375;-87
2022/06/14 08:30:10;494229.00;1.65;851.89;1411.00;0.00;3.07;;;;;35.10;1.00;;;;;;2289062;60;1098;-89
2022/06/14 08:32:45;490303.00;1.63;845.13;20718.00;0.07;36.51;;;;;35.30;1.00;;;;;;2288672;60;1116;-86
2022/06/14 08:35:20;708005.00;2.36;1221.12;88479.00;0.29;153.68;;;;;34.40;1.00;;;;;;2288666;60;1904;-86
2022/06/14 08:37:54;443498.00;1.48;764.60;91643.00;0.31;159.14;;;;;33.90;1.00;;;;;;2289032;60;1441;-87
2022/06/14 08:40:47;0.00;0.00;0.62;0.00;0.00;0.62;;;;;33.30;1.00;;;;;;2288775;60;1370;-86
2022/06/14 08:43:20;145545.00;0.49;252.13;36930.00;0.12;64.58;;;;;33.30;1.00;;;;;;2289261;60;1907;-87
2022/06/14 08:46:02;151945.00;0.51;263.16;0.00;0.00;0.62;;;;;33.30;1.00;;;;;;2288989;60;1453;-86
2022/06/14 08:48:41;33798.00;0.11;59.16;0.00;0.00;0.62;;;;;32.80;1.00;;;;;;2289073;60;1130;-87
2022/06/14 08:51:33;154443.00;0.51;267.46;68255.00;0.23;118.74;;;;;32.20;1.00;;;;;;2289077;60;1038;-87
2022/06/14 08:54:32;188728.00;0.63;326.52;0.00;0.00;0.62;;;;;32.40;1.00;;;;;;2289051;60;1099;-86
2022/06/14 08:57:23;186348.00;0.62;322.42;6617.00;0.02;12.09;;;;;32.70;1.00;;;;;;2288927;60;1446;-87
2022/06/14 09:00:12;728309.00;2.43;1256.37;55042.00;0.18;95.91;;;;;33.10;1.00;;;;;;2289033;60;1124;-86
2022/06/14 09:03:18;486346.00;1.62;838.32;0.00;0.00;0.62;;;;;32.90;1.00;;;;;;2288842;60;1117;-86
2022/06/14 09:06:13;274815.00;0.92;474.62;62407.00;0.21;108.64;;;;;32.00;1.00;;;;;;2288999;60;1462;-86
2022/06/14 09:09:26;148633.00;0.50;257.45;9481.00;0.03;17.05;;;;;31.40;1.00;;;;;;2288469;60;986;-88
2022/06/14 09:12:35;306195.00;1.02;528.57;93110.00;0.31;161.68;;;;;31.90;1.00;;;;;;2289070;60;1151;-86
2022/06/14 09:15:49;270191.00;0.90;466.67;9777.00;0.03;17.56;;;;;32.40;1.00;;;;;;2288809;60;1120;-86
2022/06/14 09:18:46;89430.00;0.30;155.32;0.00;0.00;0.62;;;;;30.80;1.00;;;;;;2281781;60;1480;-86
2022/06/14 09:21:17;419460.00;1.40;723.26;18374.00;0.06;32.45;;;;;30.20;1.00;;;;;;2288812;60;934;-87
2022/06/14 09:24:04;703447.00;2.34;1213.22;62037.00;0.21;108.00;;;;;30.30;1.00;;;;;;2288859;60;1911;-87
2022/06/14 09:26:53;186761.00;0.62;323.13;27227.00;0.09;47.78;;;;;29.70;1.00;;;;;;2288873;60;1263;-86
2022/06/14 09:29:46;117815.00;0.39;204.31;20715.00;0.07;36.51;;;;;28.50;1.00;;;;;;2288652;60;1058;-88
2022/06/14 09:36:14;74161.00;0.25;128.95;0.00;0.00;0.62;;;;;27.70;1.00;;;;;;2288994;60;1130;-85
2022/06/14 09:39:03;166736.00;0.56;288.64;5434.00;0.02;10.04;;;;;28.30;1.00;;;;;;2288708;60;1163;-86
2022/06/14 09:42:01;55695.00;0.19;97.03;0.00;0.00;0.62;;;;;28.30;1.00;;;;;;2288602;60;1453;-87
2022/06/14 09:45:10;119448.00;0.40;207.13;0.00;0.00;0.62;;;;;27.60;1.00;;;;;;2288821;60;1995;-87
2022/06/14 09:48:06;159430880.00;531.44;164302832.00;0.00;0.00;0.62;;;;;27.50;1.00;;;;;;2288848;60;1402;-87
2022/06/14 09:51:15;51087.00;0.17;89.07;0.00;0.00;0.62;;;;;28.00;1.00;;;;;;2288321;60;964;-86
2022/06/14 09:54:24;42767.00;0.14;74.68;0.00;0.00;0.62;;;;;28.40;1.00;;;;;;2288727;60;1638;-86
2022/06/14 09:57:25;87779.00;0.29;152.47;0.00;0.00;0.62;;;;;29.00;1.00;;;;;;2287772;60;1284;-86
2022/06/14 10:00:15;100556.00;0.34;174.53;0.00;0.00;0.62;;;;;28.00;1.00;;;;;;2287738;60;1454;-86
2022/06/14 10:03:04;25254.00;0.08;44.37;0.00;0.00;0.62;;;;;28.00;1.00;;;;;;2288501;60;1651;-87
2022/06/14 10:05:47;71133.00;0.24;123.72;0.00;0.00;0.62;;;;;28.70;1.00;;;;;;2288348;60;1927;-86
2022/06/14 10:08:48;196017.00;0.65;339.07;42160.00;0.14;73.63;;;;;29.20;1.00;;;;;;2288561;60;1139;-86
2022/06/14 10:11:35;100753.00;0.34;174.87;0.00;0.00;0.62;;;;;28.80;1.00;;;;;;2288736;60;1171;-86
2022/06/14 10:14:19;0.00;0.00;0.62;0.00;0.00;0.62;;;;;29.10;1.00;;;;;;2288673;60;1092;-85
2022/06/14 10:17:19;74.00;0.00;0.75;0.00;0.00;0.62;;;;;28.70;1.00;;;;;;2288702;60;1479;-85
2022/06/14 10:20:13;341343.00;1.14;588.98;43371.00;0.14;75.72;;;;;28.30;1.00;;;;;;2288702;60;1174;-86
2022/06/14 10:22:56;26329.00;0.09;46.23;0.00;0.00;0.62;;;;;28.60;1.00;;;;;;2288652;60;1036;-86
2022/06/14 10:25:32;129908.00;0.43;225.17;0.00;0.00;0.62;;;;;28.50;1.00;;;;;;2288567;60;1976;-87
2022/06/14 10:28:13;526987.00;1.76;908.30;58898.00;0.20;102.57;;;;;28.90;1.00;;;;;;2288586;60;1475;-87
2022/06/14 10:30:58;25648.00;0.09;45.05;0.00;0.00;0.62;;;;;28.70;1.00;;;;;;2288536;60;1046;-87
2022/06/14 10:33:52;33385.00;0.11;58.44;0.00;0.00;0.62;;;;;27.80;1.00;;;;;;2288576;60;999;-87
2022/06/14 10:36:57;62090.00;0.21;108.09;0.00;0.00;0.62;;;;;27.60;1.00;;;;;;2288660;60;1673;-87
2022/06/14 10:39:58;42753.00;0.14;74.65;0.00;0.00;0.62;;;;;27.70;1.00;;;;;;2288604;60;927;-85
2022/06/14 10:42:33;431992.00;1.44;744.81;32141.00;0.11;56.29;;;;;27.90;1.00;;;;;;2288497;60;1128;-86